createdAt,value
2022-12-14T00:04:04.849Z,110.93767
2022-12-14T00:09:06.593Z,107.39523
2022-12-14T00:14:08.211Z,107.82979
2022-12-14T00:19:09.838Z,117.03371
2022-12-14T00:24:11.469Z,112.76712
2022-12-14T00:29:13.098Z,125.17647
2022-12-14T00:34:14.752Z,118.50425
2022-12-14T00:39:16.647Z,118.50425
2022-12-14T00:44:18.260Z,112.30601
2022-12-14T00:49:19.878Z,112.30601
2022-12-14T00:54:21.495Z,110.03774
2022-12-14T00:59:27.249Z,107.39523
2022-12-14T01:04:29.072Z,111.84741
2022-12-14T01:09:30.713Z,111.3913
2022-12-14T01:14:32.322Z,108.70588
2022-12-14T01:19:33.962Z,108.26667
2022-12-14T01:24:35.666Z,106.53298
2022-12-14T01:29:37.260Z,107.82979
2022-12-14T01:34:38.944Z,109.5914
2022-12-14T01:39:40.620Z,110.48649
2022-12-14T01:44:42.520Z,120.5043
2022-12-14T01:49:44.270Z,118.50425
2022-12-14T01:54:49.169Z,138.32177
2022-12-14T01:59:50.873Z,134.71207
2022-12-14T02:04:52.546Z,160.14035
2022-12-14T02:09:54.184Z,131.80488
2022-12-14T02:14:55.812Z,117.03371
2022-12-14T02:19:57.453Z,116.06704
2022-12-14T02:24:59.065Z,116.54902
2022-12-14T02:30:00.721Z,124.64516
2022-12-14T02:35:03.413Z,125.17647
2022-12-14T02:40:05.020Z,138.32177
2022-12-14T02:45:06.624Z,127.33333
2022-12-14T02:50:08.348Z,113.69697
2022-12-14T02:55:09.944Z,106.53298
2022-12-14T03:00:11.532Z,104.83551
2022-12-14T03:05:13.316Z,106.10526
2022-12-14T03:10:15.186Z,114.63712
2022-12-14T03:15:16.799Z,116.06704
2022-12-14T03:20:18.488Z,124.11696
2022-12-14T03:25:20.116Z,159.38462
2022-12-14T03:30:57.750Z,146.63158
2022-12-14T03:36:00.470Z,116.06704
2022-12-14T03:41:02.059Z,107.82979
2022-12-14T03:46:04.202Z,106.53298
2022-12-14T03:51:05.896Z,106.10526
2022-12-14T03:56:07.505Z,105.25654
2022-12-14T04:01:09.215Z,105.25654
2022-12-14T04:06:11.048Z,130.10272
2022-12-14T04:11:12.847Z,153.52381
2022-12-14T04:16:14.522Z,140.80511
2022-12-14T04:21:16.203Z,132.95706
2022-12-14T04:26:17.808Z,125.71091
2022-12-14T04:31:19.501Z,115.58774
2022-12-14T04:36:21.149Z,110.93767
2022-12-14T04:41:22.754Z,106.96296
2022-12-14T04:46:24.458Z,104
2022-12-14T04:51:26.052Z,101.54476
2022-12-14T04:56:27.738Z,110.93767
2022-12-14T05:01:29.739Z,138.93671
2022-12-14T05:06:31.449Z,150.71141
2022-12-14T05:11:53.339Z,166.38267
2022-12-14T05:16:56.103Z,181.83784
2022-12-14T05:21:57.751Z,200.66667
2022-12-14T05:26:59.358Z,156.41379
2022-12-14T05:32:01.013Z,144
2022-12-14T05:37:02.766Z,125.17647
2022-12-14T05:42:04.401Z,121.52161
2022-12-14T05:47:06.017Z,125.17647
2022-12-14T05:52:07.639Z,124.64516
2022-12-14T05:57:09.283Z,123.59184
2022-12-14T06:02:11.127Z,112.76712
2022-12-14T06:07:12.872Z,108.26667
2022-12-14T06:12:14.483Z,124.11696
2022-12-14T06:17:16.077Z,138.32177
2022-12-14T06:22:17.774Z,138.32177
2022-12-14T06:27:19.409Z,137.10345
2022-12-14T06:32:21.043Z,157.88889
2022-12-14T06:37:22.705Z,150.02007
2022-12-14T06:42:24.538Z,148.65116
2022-12-14T06:47:26.211Z,132.95706
2022-12-14T06:52:27.860Z,134.12346
2022-12-14T06:57:29.479Z,151.40741
2022-12-14T07:02:31.383Z,154.9589
2022-12-14T07:07:33.225Z,164
2022-12-14T07:12:34.929Z,172.14815
2022-12-14T07:17:36.582Z,168.81752
2022-12-14T07:22:38.207Z,179.1145
2022-12-14T07:27:39.814Z,157.88889
2022-12-14T07:32:41.429Z,168
2022-12-14T07:37:43.016Z,145.30719
2022-12-14T07:42:50.728Z,166.38267
2022-12-14T07:47:52.342Z,226.56881
2022-12-14T07:52:53.948Z,199.60166
2022-12-14T07:57:55.573Z,179.1145
2022-12-14T08:02:57.201Z,192.3871
2022-12-14T08:07:58.797Z,176.45283
2022-12-14T08:13:00.394Z,160.90141
2022-12-14T08:18:02.017Z,160.90141
2022-12-14T08:23:03.611Z,178.22053
2022-12-14T08:28:05.242Z,180.92308
2022-12-14T08:33:06.881Z,182.75969
2022-12-14T08:38:08.637Z,192.3871
2022-12-14T08:43:10.244Z,187.47826
2022-12-14T08:48:11.870Z,174.71161
2022-12-14T08:53:13.506Z,123.59184
2022-12-14T08:58:15.183Z,113.69697
2022-12-14T09:03:16.902Z,108.70588
2022-12-14T09:08:18.570Z,125.17647
2022-12-14T09:13:20.292Z,145.30719
2022-12-14T09:18:21.930Z,155.68385
2022-12-14T09:23:23.518Z,162.43972
2022-12-14T09:28:25.153Z,176.45283
2022-12-14T09:33:27.351Z,168.81752
2022-12-14T09:38:29.245Z,135.30435
2022-12-14T09:43:36.755Z,130.10272
2022-12-14T09:48:39.179Z,135.30435
2022-12-14T09:53:40.830Z,139.55556
2022-12-14T09:58:42.436Z,132.3792
2022-12-14T10:03:44.250Z,132.3792
2022-12-14T10:08:51.000Z,138.93671
2022-12-14T10:13:56.251Z,151.40741
2022-12-14T10:18:59.913Z,189.41833
2022-12-14T10:24:02.613Z,166.38267
2022-12-14T10:29:04.220Z,165.58273
2022-12-14T10:34:11.928Z,170.47059
2022-12-14T10:39:13.885Z,172.14815
2022-12-14T10:44:15.497Z,196.45902
2022-12-14T10:49:17.174Z,207.24786
2022-12-14T10:54:18.819Z,188.44444
2022-12-14T10:59:20.438Z,200.66667
2022-12-14T11:04:22.045Z,201.74059
2022-12-14T11:09:23.733Z,209.51724
2022-12-14T11:14:25.349Z,207.24786
2022-12-14T11:19:27.106Z,187.47826
2022-12-14T11:24:29.007Z,206.12766
2022-12-14T11:29:30.618Z,190.4
2022-12-14T11:34:32.259Z,189.41833
2022-12-14T11:39:33.928Z,181.83784
2022-12-14T11:44:35.566Z,196.45902
2022-12-14T11:49:37.131Z,200.66667
2022-12-14T11:54:38.884Z,191.38956
2022-12-14T11:59:40.476Z,152.81356
2022-12-14T12:04:42.049Z,160.14035
2022-12-14T12:09:43.703Z,152.10811
2022-12-14T12:14:45.323Z,131.80488
2022-12-14T12:19:47.833Z,126.78932
2022-12-14T12:25:16.321Z,122.03468
2022-12-14T12:30:26.332Z,157.14879
2022-12-14T12:35:27.942Z,169.64103
2022-12-14T12:40:29.520Z,178.22053
2022-12-14T12:45:31.164Z,173.85075
2022-12-14T12:50:32.888Z,145.30719
2022-12-14T12:55:34.537Z,164
2022-12-14T13:00:36.151Z,182.75969
2022-12-14T13:05:47.188Z,167.18841
2022-12-14T13:15:57.644Z,244.4878
2022-12-14T13:20:59.258Z,286.22222
2022-12-14T13:26:00.872Z,306.35294
2022-12-14T13:31:02.573Z,302.13953
2022-12-14T13:36:04.224Z,219
2022-12-14T13:41:05.791Z,363.04762
2022-12-14T13:46:07.455Z,417.84615
2022-12-14T13:51:09.201Z,484.35088
2022-12-14T13:56:10.824Z,592.42105
2022-12-14T14:01:12.594Z,396.94118
2022-12-14T14:06:14.298Z,258.28571
2022-12-14T14:16:37.388Z,219
2022-12-14T14:21:52.505Z,245.96078
2022-12-14T14:27:15.554Z,201.74059
2022-12-14T14:32:17.164Z,156.41379
2022-12-14T14:37:18.768Z,197.49794
2022-12-14T14:42:20.438Z,192.3871
2022-12-14T14:47:22.094Z,220.23318
2022-12-14T14:52:23.759Z,286.22222
2022-12-14T14:57:25.373Z,387.16547
2022-12-14T15:02:27.007Z,504
2022-12-14T15:07:28.597Z,744
2022-12-14T15:12:30.232Z,628.44444
2022-12-14T15:17:31.836Z,652.04598
2022-12-14T15:22:33.445Z,572.57143
2022-12-14T15:27:35.060Z,644
2022-12-14T15:32:36.668Z,525.13208
2022-12-14T15:37:38.404Z,514.37037
2022-12-14T15:42:39.991Z,636.13483
2022-12-14T15:47:41.759Z,704.49383
2022-12-14T15:52:43.396Z,494
2022-12-14T15:57:45.060Z,553.90099
2022-12-14T16:02:48.168Z,644
2022-12-14T16:07:49.871Z,498.95495
2022-12-14T16:12:51.464Z,668.70588
2022-12-14T16:18:00.716Z,525.13208
2022-12-14T16:23:03.852Z,525.13208
2022-12-14T16:28:05.451Z,494
2022-12-14T16:33:07.047Z,744
2022-12-14T16:38:08.651Z,799.55556
2022-12-14T16:43:10.313Z,644
2022-12-14T16:48:12.029Z,628.44444
2022-12-14T16:53:13.804Z,530.66667
2022-12-14T16:58:15.445Z,660.27907
2022-12-14T17:03:17.212Z,475.03448
2022-12-14T17:08:18.838Z,407.15789
2022-12-14T17:13:20.473Z,387.16547
2022-12-14T17:18:22.073Z,448.91803
2022-12-14T17:23:23.674Z,489.13274
2022-12-14T17:28:25.275Z,677.33333
2022-12-14T17:33:27.293Z,695.21951
2022-12-14T17:38:29.171Z,754.52632
2022-12-14T17:43:31.103Z,620.92308
2022-12-14T17:48:33.069Z,560
2022-12-14T17:53:34.691Z,432.88889
2022-12-14T17:58:36.316Z,461.64706
2022-12-14T18:03:38.071Z,620.92308
2022-12-14T18:08:39.740Z,776.43243
2022-12-14T18:13:41.352Z,799.55556
2022-12-14T18:18:42.982Z,695.21951
2022-12-14T18:23:45.906Z,714
2022-12-14T18:28:47.903Z,744
2022-12-14T18:33:50.839Z,677.33333
2022-12-14T18:38:53.353Z,723.74684
2022-12-14T18:43:55.457Z,585.66667
2022-12-14T18:48:58.370Z,953.83607
2022-12-14T18:54:00.993Z,1024.70175
2022-12-14T18:59:02.913Z,937.54839
2022-12-14T19:04:05.518Z,744
2022-12-14T19:09:08.735Z,787.83562
2022-12-14T19:14:10.827Z,836.75362
2022-12-14T19:19:13.544Z,1024.70175
2022-12-14T19:24:15.326Z,1024.70175
2022-12-14T19:29:18.083Z,988.0678
2022-12-14T19:34:20.861Z,921.77778
2022-12-14T19:39:22.840Z,937.54839
2022-12-14T19:44:24.982Z,921.77778
2022-12-14T19:49:26.987Z,891.69231
2022-12-14T19:54:29.209Z,765.33333
2022-12-14T19:59:31.097Z,799.55556
2022-12-14T20:04:33.200Z,891.69231
2022-12-14T20:09:35.224Z,744
2022-12-14T20:14:37.044Z,787.83562
2022-12-14T20:19:39.463Z,776.43243
2022-12-14T20:24:41.411Z,644
2022-12-14T20:29:43.084Z,530.66667
2022-12-14T20:34:44.792Z,652.04598
2022-12-14T20:39:46.496Z,579.05155
2022-12-14T20:44:49.361Z,599.31915
2022-12-14T20:49:51.279Z,536.30769
2022-12-14T20:54:52.948Z,1344
2022-12-14T20:59:54.547Z,1376.55814
2022-12-14T21:04:56.193Z,1376.55814
2022-12-14T21:09:57.792Z,988.0678
2022-12-14T21:14:59.430Z,1376.55814
2022-12-14T21:20:01.490Z,1484
2022-12-14T21:25:05.267Z,1376.55814
2022-12-14T21:30:07.576Z,1410.66667
2022-12-14T21:35:09.135Z,1655.11111
2022-12-14T21:40:10.723Z,1655.11111
2022-12-14T21:45:12.324Z,1704
2022-12-14T21:50:13.962Z,1344
2022-12-14T21:55:15.557Z,1810.66667
2022-12-14T22:00:17.209Z,2068.13793
2022-12-14T22:05:18.818Z,1523.48718
2022-12-14T22:10:24.906Z,377.80282
2022-12-14T22:15:26.956Z,271.65957
2022-12-14T22:20:28.660Z,203.91561
2022-12-14T22:25:30.493Z,312.86228
2022-12-14T22:30:32.176Z,180.01533
2022-12-14T22:35:33.842Z,230.51163
2022-12-14T22:40:35.449Z,186.51969
2022-12-14T22:45:37.086Z,171.30627
2022-12-14T22:50:38.802Z,168
2022-12-14T22:55:40.414Z,151.40741
2022-12-14T23:00:42.188Z,160.14035
2022-12-14T23:05:43.831Z,134.12346
2022-12-14T23:10:45.457Z,147.97351
2022-12-14T23:15:51.581Z,139.55556
2022-12-14T23:20:53.204Z,170.47059
2022-12-14T23:25:54.778Z,144
2022-12-14T23:30:56.531Z,131.80488
2022-12-14T23:35:58.366Z,181.83784
2022-12-14T23:41:00.047Z,235.94313
2022-12-14T23:46:01.798Z,231.85047
2022-12-14T23:51:03.443Z,196.45902
2022-12-14T23:56:05.059Z,268.21053
